sensor_id;sensor_type;location;lat;lon;timestamp;P1;P2;P0
72918;PMS7003;68407;55.694;26.994;2023-03-14T00:04:05;3.6;3;2.4
72918;PMS7003;68407;55.694;26.994;2023-03-14T00:08:43;4;3;2.4
72918;PMS7003;68407;55.694;26.994;2023-03-14T00:14:20;4.3;2.7;2.2
72918;PMS7003;68407;55.694;26.994;2023-03-14T00:18:59;3.6;2.8;2.4
72918;PMS7003;68407;55.694;26.994;2023-03-14T00:23:46;3.9;3.5;2.8
72918;PMS7003;68407;55.694;26.994;2023-03-14T00:29:02;4.5;3.3;2.9
72918;PMS7003;68407;55.694;26.994;2023-03-14T00:34:16;3.1;2.6;2.3
72918;PMS7003;68407;55.694;26.994;2023-03-14T00:38:51;3.2;3;2.5
72918;PMS7003;68407;55.694;26.994;2023-03-14T00:44:02;3.9;2.6;2.2
72918;PMS7003;68407;55.694;26.994;2023-03-14T00:49:10;3.7;3.2;2.5
72918;PMS7003;68407;55.694;26.994;2023-03-14T00:54:04;3.4;3;2.4
72918;PMS7003;68407;55.694;26.994;2023-03-14T00:58:56;3.3;3;2.7
72918;PMS7003;68407;55.694;26.994;2023-03-14T01:03:47;3.4;2.6;2.2
72918;PMS7003;68407;55.694;26.994;2023-03-14T01:09:18;3.6;2.7;2.3
72918;PMS7003;68407;55.694;26.994;2023-03-14T01:14:18;3.2;2.5;2.1
72918;PMS7003;68407;55.694;26.994;2023-03-14T01:18:47;3.4;2.9;2.6
72918;PMS7003;68407;55.694;26.994;2023-03-14T01:23:55;3.1;2.3;2
72918;PMS7003;68407;55.694;26.994;2023-03-14T01:28:58;3;2.4;1.9
72918;PMS7003;68407;55.694;26.994;2023-03-14T01:33:47;3.5;2.5;2.2
72918;PMS7003;68407;55.694;26.994;2023-03-14T01:38:37;2.4;2.3;1.9
72918;PMS7003;68407;55.694;26.994;2023-03-14T01:44:18;3.1;2.7;2.3
72918;PMS7003;68407;55.694;26.994;2023-03-14T01:48:47;3.8;2.8;2.4
72918;PMS7003;68407;55.694;26.994;2023-03-14T01:53:48;3.7;3.1;2.6
72918;PMS7003;68407;55.694;26.994;2023-03-14T01:59:18;3.2;2.2;1.9
72918;PMS7003;68407;55.694;26.994;2023-03-14T02:03:38;3.7;3;2.3
72918;PMS7003;68407;55.694;26.994;2023-03-14T02:08:36;4.1;3.2;2.6
72918;PMS7003;68407;55.694;26.994;2023-03-14T02:13:59;4.1;3.4;2.8
72918;PMS7003;68407;55.694;26.994;2023-03-14T02:19:20;4.2;3.6;2.9
72918;PMS7003;68407;55.694;26.994;2023-03-14T02:23:51;5.3;4.2;3.2
72918;PMS7003;68407;55.694;26.994;2023-03-14T02:28:58;5.1;4;3.2
72918;PMS7003;68407;55.694;26.994;2023-03-14T02:33:37;6.5;4.7;3.9
72918;PMS7003;68407;55.694;26.994;2023-03-14T02:39:06;7.3;5.5;4.2
72918;PMS7003;68407;55.694;26.994;2023-03-14T02:43:36;7.1;5.3;4.2
72918;PMS7003;68407;55.694;26.994;2023-03-14T02:48:51;6.9;5.5;4
72918;PMS7003;68407;55.694;26.994;2023-03-14T02:54:04;6.8;5.7;4.3
72918;PMS7003;68407;55.694;26.994;2023-03-14T02:59:19;7.5;6.1;4.8
72918;PMS7003;68407;55.694;26.994;2023-03-14T03:04:18;8.1;6.2;4.8
72918;PMS7003;68407;55.694;26.994;2023-03-14T03:09:05;8.9;6.9;5.4
72918;PMS7003;68407;55.694;26.994;2023-03-14T03:13:36;8.4;6.7;5.5
72918;PMS7003;68407;55.694;26.994;2023-03-14T03:19:18;10.4;8;6.3
72918;PMS7003;68407;55.694;26.994;2023-03-14T03:23:58;10.8;9;6.7
72918;PMS7003;68407;55.694;26.994;2023-03-14T03:28:40;11.8;9.4;7.1
72918;PMS7003;68407;55.694;26.994;2023-03-14T03:34:05;11.7;9.9;7.3
72918;PMS7003;68407;55.694;26.994;2023-03-14T03:39:18;12.5;10.5;7.4
72918;PMS7003;68407;55.694;26.994;2023-03-14T03:43:36;12.1;9.7;7.3
72918;PMS7003;68407;55.694;26.994;2023-03-14T03:49:19;11.1;9.9;7
72918;PMS7003;68407;55.694;26.994;2023-03-14T03:54:19;13.5;11.1;8.6
72918;PMS7003;68407;55.694;26.994;2023-03-14T03:59:05;14.2;12.1;8.7
72918;PMS7003;68407;55.694;26.994;2023-03-14T04:03:56;14.7;12.3;8.5
72918;PMS7003;68407;55.694;26.994;2023-03-14T04:09:04;13.6;12.1;8.8
72918;PMS7003;68407;55.694;26.994;2023-03-14T04:14:05;16.2;13;9.3
72918;PMS7003;68407;55.694;26.994;2023-03-14T04:19:13;14.6;12.4;8.9
72918;PMS7003;68407;55.694;26.994;2023-03-14T04:23:37;14.9;13.4;9.4
72918;PMS7003;68407;55.694;26.994;2023-03-14T04:29:19;15.5;13.8;10.2
72918;PMS7003;68407;55.694;26.994;2023-03-14T04:33:59;16.9;14.3;10.4
72918;PMS7003;68407;55.694;26.994;2023-03-14T04:38:37;16.7;13.5;9.9
72918;PMS7003;68407;55.694;26.994;2023-03-14T04:44:05;16.3;14;9.7
72918;PMS7003;68407;55.694;26.994;2023-03-14T04:49:19;16.2;13.7;10.1
72918;PMS7003;68407;55.694;26.994;2023-03-14T04:53:47;16.8;13.6;9.6
72918;PMS7003;68407;55.694;26.994;2023-03-14T04:58:57;17;14.1;10.1
72918;PMS7003;68407;55.694;26.994;2023-03-14T05:04:17;16.9;14.7;10.7
72918;PMS7003;68407;55.694;26.994;2023-03-14T05:08:37;14.8;12.2;8.8
72918;PMS7003;68407;55.694;26.994;2023-03-14T05:13:37;18.8;15.2;10.9
72918;PMS7003;68407;55.694;26.994;2023-03-14T05:18:59;18.9;15.8;11.1
72918;PMS7003;68407;55.694;26.994;2023-03-14T05:24:19;17.9;14.9;10.8
72918;PMS7003;68407;55.694;26.994;2023-03-14T05:29:01;17.3;15.3;10.6
72918;PMS7003;68407;55.694;26.994;2023-03-14T05:33:57;18.1;16.3;11.1
72918;PMS7003;68407;55.694;26.994;2023-03-14T05:38:37;18.1;15.6;11.3
72918;PMS7003;68407;55.694;26.994;2023-03-14T05:44:03;17.7;15;10.9
72918;PMS7003;68407;55.694;26.994;2023-03-14T05:48:47;17;14.3;10.4
72918;PMS7003;68407;55.694;26.994;2023-03-14T05:53:37;16.8;13.8;10
72918;PMS7003;68407;55.694;26.994;2023-03-14T05:58:37;16.6;14.5;10.5
72918;PMS7003;68407;55.694;26.994;2023-03-14T06:03:57;16.2;13.9;10
72918;PMS7003;68407;55.694;26.994;2023-03-14T06:09:19;16.9;14.1;10.3
72918;PMS7003;68407;55.694;26.994;2023-03-14T06:14:05;16.4;14.2;10.4
72918;PMS7003;68407;55.694;26.994;2023-03-14T06:18:37;17;14.7;11.1
72918;PMS7003;68407;55.694;26.994;2023-03-14T06:24:19;15.1;13.6;9.8
72918;PMS7003;68407;55.694;26.994;2023-03-14T06:28:59;16.4;13.9;9.9
72918;PMS7003;68407;55.694;26.994;2023-03-14T06:33:47;15.4;12.5;9.3
72918;PMS7003;68407;55.694;26.994;2023-03-14T06:39:03;14.1;12.3;9.8
72918;PMS7003;68407;55.694;26.994;2023-03-14T06:44:19;11.8;10.4;7.9
72918;PMS7003;68407;55.694;26.994;2023-03-14T06:48:59;14.1;11.6;9.2
72918;PMS7003;68407;55.694;26.994;2023-03-14T06:54:19;13.5;11.6;8.7
72918;PMS7003;68407;55.694;26.994;2023-03-14T06:59:17;14.8;11.2;8.3
72918;PMS7003;68407;55.694;26.994;2023-03-14T07:04:01;11.5;9.6;7
72918;PMS7003;68407;55.694;26.994;2023-03-14T07:09:13;13.8;11.3;8.4
72918;PMS7003;68407;55.694;26.994;2023-03-14T07:14:05;13.9;11.7;8.9
72918;PMS7003;68407;55.694;26.994;2023-03-14T07:19:05;13.5;11;8.5
72918;PMS7003;68407;55.694;26.994;2023-03-14T07:24:13;11.1;9.2;7.3
72918;PMS7003;68407;55.694;26.994;2023-03-14T07:28:37;11.2;9.9;7.2
72918;PMS7003;68407;55.694;26.994;2023-03-14T07:34:19;12.6;10.5;7.7
72918;PMS7003;68407;55.694;26.994;2023-03-14T07:39:05;11.1;9.8;7.6
72918;PMS7003;68407;55.694;26.994;2023-03-14T07:43:59;9.5;7.7;5.6
72918;PMS7003;68407;55.694;26.994;2023-03-14T07:48:51;12.3;10.6;8.1
72918;PMS7003;68407;55.694;26.994;2023-03-14T07:54:11;12.7;10.2;8
72918;PMS7003;68407;55.694;26.994;2023-03-14T07:58:59;12.2;9.7;7.4
72918;PMS7003;68407;55.694;26.994;2023-03-14T08:03:43;11.1;9.7;7.8
72918;PMS7003;68407;55.694;26.994;2023-03-14T08:09:03;10.1;8.9;7.1
72918;PMS7003;68407;55.694;26.994;2023-03-14T08:13:37;10.4;8.4;6.5
72918;PMS7003;68407;55.694;26.994;2023-03-14T08:18:47;10.1;8.9;6.9
72918;PMS7003;68407;55.694;26.994;2023-03-14T08:23:37;10.3;9;7
72918;PMS7003;68407;55.694;26.994;2023-03-14T08:29:17;9.9;8.2;6.6
72918;PMS7003;68407;55.694;26.994;2023-03-14T08:34:09;9.6;7.8;5.9
72918;PMS7003;68407;55.694;26.994;2023-03-14T08:38:37;10.1;8.2;6.4
72918;PMS7003;68407;55.694;26.994;2023-03-14T08:43:37;9;7.9;6.3
72918;PMS7003;68407;55.694;26.994;2023-03-14T08:49:01;10;8.3;6.5
72918;PMS7003;68407;55.694;26.994;2023-03-14T08:53:45;9.6;8.3;6.5
72918;PMS7003;68407;55.694;26.994;2023-03-14T08:58:47;9.9;7.9;6.2
72918;PMS7003;68407;55.694;26.994;2023-03-14T09:03:49;10.1;7.9;6
72918;PMS7003;68407;55.694;26.994;2023-03-14T09:08:37;10.3;8.5;6.4
72918;PMS7003;68407;55.694;26.994;2023-03-14T09:14:19;9.4;7.7;6.2
72918;PMS7003;68407;55.694;26.994;2023-03-14T09:19:05;10.8;8.1;6.1
72918;PMS7003;68407;55.694;26.994;2023-03-14T09:23:47;9.3;7.9;6.4
72918;PMS7003;68407;55.694;26.994;2023-03-14T09:29:19;9.5;7.9;6.1
72918;PMS7003;68407;55.694;26.994;2023-03-14T09:33:47;8.5;7;5.4
72918;PMS7003;68407;55.694;26.994;2023-03-14T09:39:19;10;8.3;6.5
72918;PMS7003;68407;55.694;26.994;2023-03-14T09:44:05;9.4;7.6;6
72918;PMS7003;68407;55.694;26.994;2023-03-14T09:49:20;8.8;7.1;5
72918;PMS7003;68407;55.694;26.994;2023-03-14T09:53:59;8.8;7.3;5.9
72918;PMS7003;68407;55.694;26.994;2023-03-14T09:59:02;8.5;7.4;5.7
72918;PMS7003;68407;55.694;26.994;2023-03-14T10:04:20;8.6;7.4;6
72918;PMS7003;68407;55.694;26.994;2023-03-14T10:08:51;8.4;7.2;5.7
72918;PMS7003;68407;55.694;26.994;2023-03-14T10:14:02;10.2;7.7;6.2
72918;PMS7003;68407;55.694;26.994;2023-03-14T10:19:05;8.6;7.3;6.2
72918;PMS7003;68407;55.694;26.994;2023-03-14T10:23:39;10;7.9;6.3
72918;PMS7003;68407;55.694;26.994;2023-03-14T10:29:13;9.1;7.9;6.3
72918;PMS7003;68407;55.694;26.994;2023-03-14T10:33:58;10.6;8.2;6.4
72918;PMS7003;68407;55.694;26.994;2023-03-14T10:39:24;9;8.2;6.2
72918;PMS7003;68407;55.694;26.994;2023-03-14T10:44:05;9.4;7.6;6.3
72918;PMS7003;68407;55.694;26.994;2023-03-14T10:48:37;10.3;8.5;6.4
72918;PMS7003;68407;55.694;26.994;2023-03-14T10:53:55;9.5;8.5;6.4
72918;PMS7003;68407;55.694;26.994;2023-03-14T10:58:40;9;7.5;5.9
72918;PMS7003;68407;55.694;26.994;2023-03-14T11:03:37;9.9;8;6.2
72918;PMS7003;68407;55.694;26.994;2023-03-14T11:09:06;10.3;8.6;6.7
72918;PMS7003;68407;55.694;26.994;2023-03-14T11:14:08;6.8;5.2;4.3
72918;PMS7003;68407;55.694;26.994;2023-03-14T11:18:51;8.5;7.1;5.5
72918;PMS7003;68407;55.694;26.994;2023-03-14T11:24:22;7.8;6.7;5.2
72918;PMS7003;68407;55.694;26.994;2023-03-14T11:28:57;8.6;7.3;5.7
72918;PMS7003;68407;55.694;26.994;2023-03-14T11:33:37;6.2;5.6;4.1
72918;PMS7003;68407;55.694;26.994;2023-03-14T11:39:19;8.9;7.2;5.5
72918;PMS7003;68407;55.694;26.994;2023-03-14T11:44:19;9.2;7.8;6.1
72918;PMS7003;68407;55.694;26.994;2023-03-14T11:48:38;9.4;7.9;5.6
72918;PMS7003;68407;55.694;26.994;2023-03-14T11:54:16;9;7.9;6.1
72918;PMS7003;68407;55.694;26.994;2023-03-14T11:59:14;9.2;7.5;5.9
72918;PMS7003;68407;55.694;26.994;2023-03-14T12:03:54;9.2;7.5;5.7
72918;PMS7003;68407;55.694;26.994;2023-03-14T12:08:59;9.2;7.8;6.1
72918;PMS7003;68407;55.694;26.994;2023-03-14T12:13:37;9.5;7.8;6.1
72918;PMS7003;68407;55.694;26.994;2023-03-14T12:19:28;8.6;7.2;5.7
72918;PMS7003;68407;55.694;26.994;2023-03-14T12:24:19;7.8;6.7;5.5
72918;PMS7003;68407;55.694;26.994;2023-03-14T12:28:37;8.8;7.4;5.6
72918;PMS7003;68407;55.694;26.994;2023-03-14T12:34:29;9;7.5;5.8
72918;PMS7003;68407;55.694;26.994;2023-03-14T12:39:01;9.8;7.5;6
72918;PMS7003;68407;55.694;26.994;2023-03-14T12:43:37;7.9;6.5;4.8
72918;PMS7003;68407;55.694;26.994;2023-03-14T12:49:03;11.7;9.9;7.5
72918;PMS7003;68407;55.694;26.994;2023-03-14T12:54:19;13.7;11.6;9
72918;PMS7003;68407;55.694;26.994;2023-03-14T12:59:14;13.2;10.7;8
72918;PMS7003;68407;55.694;26.994;2023-03-14T13:04:15;12;8.9;7
72918;PMS7003;68407;55.694;26.994;2023-03-14T13:09:52;9;7.8;6
72918;PMS7003;68407;55.694;26.994;2023-03-14T13:14:07;10.2;8.1;6.4
72918;PMS7003;68407;55.694;26.994;2023-03-14T13:18:59;8.7;6.9;5.5
72918;PMS7003;68407;55.694;26.994;2023-03-14T13:24:06;6.4;5.7;4.5
72918;PMS7003;68407;55.694;26.994;2023-03-14T13:29:08;6;4.7;3.9
72918;PMS7003;68407;55.694;26.994;2023-03-14T13:34:11;6.6;5.3;4.2
72918;PMS7003;68407;55.694;26.994;2023-03-14T13:38:37;5.9;5.5;4.4
72918;PMS7003;68407;55.694;26.994;2023-03-14T13:44:26;6.3;5.3;4
72918;PMS7003;68407;55.694;26.994;2023-03-14T13:49:05;4.8;4;3.3
72918;PMS7003;68407;55.694;26.994;2023-03-14T13:53:42;5.4;4.8;3.9
72918;PMS7003;68407;55.694;26.994;2023-03-14T13:58:47;5.1;4.3;3.6
72918;PMS7003;68407;55.694;26.994;2023-03-14T14:04:14;5.4;4.3;3.3
72918;PMS7003;68407;55.694;26.994;2023-03-14T14:08:59;5.4;4.3;3.4
72918;PMS7003;68407;55.694;26.994;2023-03-14T14:13:55;4.9;3.8;3.3
72918;PMS7003;68407;55.694;26.994;2023-03-14T14:19:07;5.3;4;3.3
72918;PMS7003;68407;55.694;26.994;2023-03-14T14:23:47;5;4;3.2
72918;PMS7003;68407;55.694;26.994;2023-03-14T14:29:25;4.9;4.1;3.4
72918;PMS7003;68407;55.694;26.994;2023-03-14T14:34:01;4.4;3.9;3.2
72918;PMS7003;68407;55.694;26.994;2023-03-14T14:38:52;5.9;4.3;3.4
72918;PMS7003;68407;55.694;26.994;2023-03-14T14:44:13;4.6;4;3.2
72918;PMS7003;68407;55.694;26.994;2023-03-14T14:49:21;5.5;4.1;3.3
72918;PMS7003;68407;55.694;26.994;2023-03-14T14:53:59;4.1;3.4;2.8
72918;PMS7003;68407;55.694;26.994;2023-03-14T14:59:04;4.1;3.3;2.7
72918;PMS7003;68407;55.694;26.994;2023-03-14T15:04:01;4;3.4;2.8
72918;PMS7003;68407;55.694;26.994;2023-03-14T15:09:08;4.3;3.1;2.6
72918;PMS7003;68407;55.694;26.994;2023-03-14T15:13:59;4.3;3.7;3.2
72918;PMS7003;68407;55.694;26.994;2023-03-14T15:18:37;5.3;4.4;3.8
72918;PMS7003;68407;55.694;26.994;2023-03-14T15:24:21;6.9;5.3;4.3
72918;PMS7003;68407;55.694;26.994;2023-03-14T15:29:21;4.3;3.7;3.2
72918;PMS7003;68407;55.694;26.994;2023-03-14T15:33:37;4.5;3.5;2.9
72918;PMS7003;68407;55.694;26.994;2023-03-14T15:39:19;4.1;3.1;2.5
72918;PMS7003;68407;55.694;26.994;2023-03-14T15:44:07;4.5;3.2;2.7
72918;PMS7003;68407;55.694;26.994;2023-03-14T15:48:47;4.7;3.1;2.3
72918;PMS7003;68407;55.694;26.994;2023-03-14T15:53:51;6.1;4.8;3.7
72918;PMS7003;68407;55.694;26.994;2023-03-14T15:59:21;5;4.1;3.3
72918;PMS7003;68407;55.694;26.994;2023-03-14T16:04:01;6;4.9;3.9
72918;PMS7003;68407;55.694;26.994;2023-03-14T16:08:53;6.2;4.6;3.6
72918;PMS7003;68407;55.694;26.994;2023-03-14T16:14:21;6.8;5.2;4.3
72918;PMS7003;68407;55.694;26.994;2023-03-14T16:18:47;5.7;4.6;3.9
72918;PMS7003;68407;55.694;26.994;2023-03-14T16:23:59;5.2;4.1;3.4
72918;PMS7003;68407;55.694;26.994;2023-03-14T16:28:47;5.8;3.9;3
72918;PMS7003;68407;55.694;26.994;2023-03-14T16:34:03;4.7;3.7;2.9
72918;PMS7003;68407;55.694;26.994;2023-03-14T16:39:15;4.7;3.6;2.8
72918;PMS7003;68407;55.694;26.994;2023-03-14T16:43:37;4.1;3.2;2.6
72918;PMS7003;68407;55.694;26.994;2023-03-14T16:49:23;3.8;3.3;2.6
72918;PMS7003;68407;55.694;26.994;2023-03-14T16:54:07;3.4;2.4;2.1
72918;PMS7003;68407;55.694;26.994;2023-03-14T16:58:47;3.3;2.4;2.1
72918;PMS7003;68407;55.694;26.994;2023-03-14T17:03:53;3.1;2.6;2.3
72918;PMS7003;68407;55.694;26.994;2023-03-14T17:09:15;3.6;2.9;2.4
72918;PMS7003;68407;55.694;26.994;2023-03-14T17:13:37;3.5;2.8;2.4
72918;PMS7003;68407;55.694;26.994;2023-03-14T17:19:09;2.9;2.6;2.3
72918;PMS7003;68407;55.694;26.994;2023-03-14T17:23:59;3.4;3;2.5
72918;PMS7003;68407;55.694;26.994;2023-03-14T17:28:37;3.8;2.9;2.5
72918;PMS7003;68407;55.694;26.994;2023-03-14T17:34:23;3.3;2.8;2.4
72918;PMS7003;68407;55.694;26.994;2023-03-14T17:38:47;4;2.9;2.4
72918;PMS7003;68407;55.694;26.994;2023-03-14T17:44:01;3.6;3.1;2.5
72918;PMS7003;68407;55.694;26.994;2023-03-14T17:49:15;3.2;2.7;2.2
72918;PMS7003;68407;55.694;26.994;2023-03-14T17:54:23;4.1;2.8;2.3
72918;PMS7003;68407;55.694;26.994;2023-03-14T17:58:47;4.1;3.6;2.9
72918;PMS7003;68407;55.694;26.994;2023-03-14T18:04:05;4.4;4.1;3.3
72918;PMS7003;68407;55.694;26.994;2023-03-14T18:09:13;4.1;3.5;2.7
72918;PMS7003;68407;55.694;26.994;2023-03-14T18:14:09;4.4;3.4;2.9
72918;PMS7003;68407;55.694;26.994;2023-03-14T18:18:59;4.1;3.3;2.7
72918;PMS7003;68407;55.694;26.994;2023-03-14T18:23:37;3.6;3.5;2.8
72918;PMS7003;68407;55.694;26.994;2023-03-14T18:29:21;4.9;3.6;3.1
72918;PMS7003;68407;55.694;26.994;2023-03-14T18:33:57;4.5;3.8;3.1
72918;PMS7003;68407;55.694;26.994;2023-03-14T18:39:05;4.3;3.5;2.7
72918;PMS7003;68407;55.694;26.994;2023-03-14T18:44:21;4.6;4;3.3
72918;PMS7003;68407;55.694;26.994;2023-03-14T18:48:59;5;4.4;3.5
72918;PMS7003;68407;55.694;26.994;2023-03-14T18:53:45;4.7;3.9;3.4
72918;PMS7003;68407;55.694;26.994;2023-03-14T18:58:51;5.1;4.1;3.3
72918;PMS7003;68407;55.694;26.994;2023-03-14T19:04:21;5.1;4.3;3.6
72918;PMS7003;68407;55.694;26.994;2023-03-14T19:08:45;4.7;4.1;3.3
72918;PMS7003;68407;55.694;26.994;2023-03-14T19:13:45;5.8;5;4.2
72918;PMS7003;68407;55.694;26.994;2023-03-14T19:19:21;5.7;4.4;3.6
72918;PMS7003;68407;55.694;26.994;2023-03-14T19:23:38;5.3;4.1;3.3
72918;PMS7003;68407;55.694;26.994;2023-03-14T19:28:45;4;3.4;2.6
72918;PMS7003;68407;55.694;26.994;2023-03-14T19:33:37;6.1;5.1;4.1
72918;PMS7003;68407;55.694;26.994;2023-03-14T19:39:21;5.5;4.4;3.7
72918;PMS7003;68407;55.694;26.994;2023-03-14T19:43:49;5.7;4.6;3.9
72918;PMS7003;68407;55.694;26.994;2023-03-14T19:48:59;5.2;4.6;3.7
72918;PMS7003;68407;55.694;26.994;2023-03-14T19:53:51;5.6;4.2;3.3
72918;PMS7003;68407;55.694;26.994;2023-03-14T19:59:05;4.4;3.5;3
72918;PMS7003;68407;55.694;26.994;2023-03-14T20:03:45;4.7;3.9;3.1
72918;PMS7003;68407;55.694;26.994;2023-03-14T20:08:51;4.1;3.3;2.6
72918;PMS7003;68407;55.694;26.994;2023-03-14T20:13:55;4.7;3.6;3.2
72918;PMS7003;68407;55.694;26.994;2023-03-14T20:18:45;3.6;2.7;2.2
72918;PMS7003;68407;55.694;26.994;2023-03-14T20:24:21;3.6;2.9;2.4
72918;PMS7003;68407;55.694;26.994;2023-03-14T20:29:07;4.6;3.5;2.7
72918;PMS7003;68407;55.694;26.994;2023-03-14T20:34:07;3.6;3.1;2.5
72918;PMS7003;68407;55.694;26.994;2023-03-14T20:39:21;3.3;3;2.6
72918;PMS7003;68407;55.694;26.994;2023-03-14T20:43:59;3.6;2.9;2.4
72918;PMS7003;68407;55.694;26.994;2023-03-14T20:48:37;3.7;3.2;2.5
72918;PMS7003;68407;55.694;26.994;2023-03-14T20:54:13;4.4;3.6;2.8
72918;PMS7003;68407;55.694;26.994;2023-03-14T20:59:21;4.1;3.3;2.6
72918;PMS7003;68407;55.694;26.994;2023-03-14T21:04:05;4.7;3.8;3
72918;PMS7003;68407;55.694;26.994;2023-03-14T21:09:05;3.9;3.3;2.9
72918;PMS7003;68407;55.694;26.994;2023-03-14T21:14:13;3.7;3.1;2.7
72918;PMS7003;68407;55.694;26.994;2023-03-14T21:19:07;4;2.7;2.2
72918;PMS7003;68407;55.694;26.994;2023-03-14T21:23:55;4.8;3.6;3
72918;PMS7003;68407;55.694;26.994;2023-03-14T21:29:20;3.5;2.9;2.4
72918;PMS7003;68407;55.694;26.994;2023-03-14T21:33:57;4.6;3.6;2.7
72918;PMS7003;68407;55.694;26.994;2023-03-14T21:39:21;4.8;3.3;2.7
72918;PMS7003;68407;55.694;26.994;2023-03-14T21:43:45;5.1;3.9;3.1
72918;PMS7003;68407;55.694;26.994;2023-03-14T21:49:21;4.3;3.3;2.8
72918;PMS7003;68407;55.694;26.994;2023-03-14T21:53:59;4.3;3.3;2.9
72918;PMS7003;68407;55.694;26.994;2023-03-14T21:58:51;5.2;3.9;3.3
72918;PMS7003;68407;55.694;26.994;2023-03-14T22:03:45;4.5;3.6;3
72918;PMS7003;68407;55.694;26.994;2023-03-14T22:09:21;4.1;3.6;2.9
72918;PMS7003;68407;55.694;26.994;2023-03-14T22:13:45;5.4;3.9;3.2
72918;PMS7003;68407;55.694;26.994;2023-03-14T22:18:57;4.5;3.8;3.2
72918;PMS7003;68407;55.694;26.994;2023-03-14T22:24:21;4.8;3.7;3.3
72918;PMS7003;68407;55.694;26.994;2023-03-14T22:28:45;5.4;3.8;3.2
72918;PMS7003;68407;55.694;26.994;2023-03-14T22:33:53;5;4.1;3.3
72918;PMS7003;68407;55.694;26.994;2023-03-14T22:38:37;4.6;3.8;3.2
72918;PMS7003;68407;55.694;26.994;2023-03-14T22:44:21;3.8;3.2;2.8
72918;PMS7003;68407;55.694;26.994;2023-03-14T22:49:21;4.5;3.2;2.5
72918;PMS7003;68407;55.694;26.994;2023-03-14T22:53:59;3.9;3.5;3
72918;PMS7003;68407;55.694;26.994;2023-03-14T22:58:51;5.3;3.6;3
72918;PMS7003;68407;55.694;26.994;2023-03-14T23:04:03;5.1;3.8;3
72918;PMS7003;68407;55.694;26.994;2023-03-14T23:08:37;5.5;4;3.2
72918;PMS7003;68407;55.694;26.994;2023-03-14T23:13:51;5;4.1;3.3
72918;PMS7003;68407;55.694;26.994;2023-03-14T23:19:01;4.9;4;3.3
72918;PMS7003;68407;55.694;26.994;2023-03-14T23:23:57;4.7;4;3.2
72918;PMS7003;68407;55.694;26.994;2023-03-14T23:29:21;4.7;4.2;3.4
72918;PMS7003;68407;55.694;26.994;2023-03-14T23:34:07;5.5;4.2;3.1
72918;PMS7003;68407;55.694;26.994;2023-03-14T23:38:51;4.2;3.3;2.6
72918;PMS7003;68407;55.694;26.994;2023-03-14T23:44:21;5.5;4.7;3.9
72918;PMS7003;68407;55.694;26.994;2023-03-14T23:48:59;5.8;4.6;3.5
72918;PMS7003;68407;55.694;26.994;2023-03-14T23:53:45;5.4;4.1;3.5
72918;PMS7003;68407;55.694;26.994;2023-03-14T23:59:05;5.6;4.3;3.4
